sensor_id;sensor_type;location;lat;lon;timestamp;P1;durP1;ratioP1;P2;durP2;ratioP2
83715;SDS011;73698;51.138;6.950;2024-03-02T00:01:58;1.98;;;1.17;;
83715;SDS011;73698;51.138;6.950;2024-03-02T00:04:23;1.85;;;1.10;;
83715;SDS011;73698;51.138;6.950;2024-03-02T00:06:51;2.65;;;1.20;;
83715;SDS011;73698;51.138;6.950;2024-03-02T00:09:18;2.22;;;1.17;;
83715;SDS011;73698;51.138;6.950;2024-03-02T00:11:43;2.25;;;0.90;;
83715;SDS011;73698;51.138;6.950;2024-03-02T00:14:09;3.83;;;1.23;;
83715;SDS011;73698;51.138;6.950;2024-03-02T00:16:34;1.30;;;0.98;;
83715;SDS011;73698;51.138;6.950;2024-03-02T00:19:04;1.10;;;1.00;;
83715;SDS011;73698;51.138;6.950;2024-03-02T00:21:31;3.28;;;1.30;;
83715;SDS011;73698;51.138;6.950;2024-03-02T00:23:57;3.33;;;1.38;;
83715;SDS011;73698;51.138;6.950;2024-03-02T00:26:22;1.75;;;1.00;;
83715;SDS011;73698;51.138;6.950;2024-03-02T00:28:47;1.85;;;1.10;;
83715;SDS011;73698;51.138;6.950;2024-03-02T00:31:15;2.88;;;1.13;;
83715;SDS011;73698;51.138;6.950;2024-03-02T00:33:44;2.03;;;1.38;;
83715;SDS011;73698;51.138;6.950;2024-03-02T00:36:12;2.33;;;1.30;;
83715;SDS011;73698;51.138;6.950;2024-03-02T00:38:48;1.80;;;1.30;;
83715;SDS011;73698;51.138;6.950;2024-03-02T00:41:21;2.13;;;1.42;;
83715;SDS011;73698;51.138;6.950;2024-03-02T00:44:05;1.98;;;1.20;;
83715;SDS011;73698;51.138;6.950;2024-03-02T00:49:11;0.90;;;0.85;;
83715;SDS011;73698;51.138;6.950;2024-03-02T00:51:39;3.55;;;1.30;;
83715;SDS011;73698;51.138;6.950;2024-03-02T00:54:07;1.20;;;1.10;;
83715;SDS011;73698;51.138;6.950;2024-03-02T00:56:34;1.77;;;1.10;;
83715;SDS011;73698;51.138;6.950;2024-03-02T00:59:00;3.67;;;1.50;;
83715;SDS011;73698;51.138;6.950;2024-03-02T01:01:26;3.63;;;1.23;;
83715;SDS011;73698;51.138;6.950;2024-03-02T01:03:51;1.63;;;1.10;;
83715;SDS011;73698;51.138;6.950;2024-03-02T01:06:17;1.50;;;1.27;;
83715;SDS011;73698;51.138;6.950;2024-03-02T01:08:42;2.92;;;1.20;;
83715;SDS011;73698;51.138;6.950;2024-03-02T01:11:08;2.60;;;1.17;;
83715;SDS011;73698;51.138;6.950;2024-03-02T01:13:34;1.98;;;1.15;;
83715;SDS011;73698;51.138;6.950;2024-03-02T01:15:59;2.38;;;1.00;;
83715;SDS011;73698;51.138;6.950;2024-03-02T01:18:25;1.30;;;1.05;;
83715;SDS011;73698;51.138;6.950;2024-03-02T01:20:50;1.83;;;0.88;;
83715;SDS011;73698;51.138;6.950;2024-03-02T01:23:19;2.10;;;1.20;;
83715;SDS011;73698;51.138;6.950;2024-03-02T01:25:46;1.65;;;0.90;;
83715;SDS011;73698;51.138;6.950;2024-03-02T01:28:12;2.08;;;1.10;;
83715;SDS011;73698;51.138;6.950;2024-03-02T01:30:38;0.88;;;0.88;;
83715;SDS011;73698;51.138;6.950;2024-03-02T01:33:03;1.25;;;1.05;;
83715;SDS011;73698;51.138;6.950;2024-03-02T01:35:30;1.58;;;1.25;;
83715;SDS011;73698;51.138;6.950;2024-03-02T01:37:56;1.98;;;1.10;;
83715;SDS011;73698;51.138;6.950;2024-03-02T01:40:21;1.10;;;0.80;;
83715;SDS011;73698;51.138;6.950;2024-03-02T01:42:48;2.22;;;1.27;;
83715;SDS011;73698;51.138;6.950;2024-03-02T01:45:14;3.08;;;1.00;;
83715;SDS011;73698;51.138;6.950;2024-03-02T01:47:39;2.55;;;0.80;;
83715;SDS011;73698;51.138;6.950;2024-03-02T01:50:05;2.08;;;1.10;;
83715;SDS011;73698;51.138;6.950;2024-03-02T01:52:31;1.55;;;0.95;;
83715;SDS011;73698;51.138;6.950;2024-03-02T01:54:56;1.80;;;1.23;;
83715;SDS011;73698;51.138;6.950;2024-03-02T01:57:22;1.42;;;1.10;;
83715;SDS011;73698;51.138;6.950;2024-03-02T01:59:47;4.10;;;1.00;;
83715;SDS011;73698;51.138;6.950;2024-03-02T02:02:14;4.28;;;1.00;;
83715;SDS011;73698;51.138;6.950;2024-03-02T02:04:40;1.48;;;0.80;;
83715;SDS011;73698;51.138;6.950;2024-03-02T02:07:05;1.40;;;0.88;;
83715;SDS011;73698;51.138;6.950;2024-03-02T02:09:31;1.70;;;0.93;;
83715;SDS011;73698;51.138;6.950;2024-03-02T02:11:57;1.05;;;0.75;;
83715;SDS011;73698;51.138;6.950;2024-03-02T02:14:23;1.42;;;1.00;;
83715;SDS011;73698;51.138;6.950;2024-03-02T02:16:48;1.48;;;1.05;;
83715;SDS011;73698;51.138;6.950;2024-03-02T02:19:14;1.58;;;0.93;;
83715;SDS011;73698;51.138;6.950;2024-03-02T02:21:42;1.83;;;0.95;;
83715;SDS011;73698;51.138;6.950;2024-03-02T02:24:08;2.20;;;0.80;;
83715;SDS011;73698;51.138;6.950;2024-03-02T02:26:33;1.70;;;1.20;;
83715;SDS011;73698;51.138;6.950;2024-03-02T02:28:58;1.13;;;1.02;;
83715;SDS011;73698;51.138;6.950;2024-03-02T02:31:24;2.30;;;1.08;;
83715;SDS011;73698;51.138;6.950;2024-03-02T02:33:49;1.67;;;0.90;;
83715;SDS011;73698;51.138;6.950;2024-03-02T02:36:15;0.70;;;0.70;;
83715;SDS011;73698;51.138;6.950;2024-03-02T02:38:41;0.70;;;0.70;;
83715;SDS011;73698;51.138;6.950;2024-03-02T02:41:09;0.80;;;0.80;;
83715;SDS011;73698;51.138;6.950;2024-03-02T02:43:35;1.90;;;1.10;;
83715;SDS011;73698;51.138;6.950;2024-03-02T02:46:00;1.40;;;0.95;;
83715;SDS011;73698;51.138;6.950;2024-03-02T02:48:25;0.82;;;0.63;;
83715;SDS011;73698;51.138;6.950;2024-03-02T02:50:51;3.38;;;1.05;;
83715;SDS011;73698;51.138;6.950;2024-03-02T02:53:16;2.42;;;0.95;;
83715;SDS011;73698;51.138;6.950;2024-03-02T02:55:42;2.05;;;0.80;;
83715;SDS011;73698;51.138;6.950;2024-03-02T02:58:11;1.30;;;0.85;;
83715;SDS011;73698;51.138;6.950;2024-03-02T03:00:36;1.35;;;0.80;;
83715;SDS011;73698;51.138;6.950;2024-03-02T03:03:02;2.00;;;1.00;;
83715;SDS011;73698;51.138;6.950;2024-03-02T03:05:27;0.77;;;0.70;;
83715;SDS011;73698;51.138;6.950;2024-03-02T03:07:53;1.38;;;0.90;;
83715;SDS011;73698;51.138;6.950;2024-03-02T03:10:18;1.30;;;0.90;;
83715;SDS011;73698;51.138;6.950;2024-03-02T03:12:47;1.10;;;0.90;;
83715;SDS011;73698;51.138;6.950;2024-03-02T03:15:12;1.90;;;1.10;;
83715;SDS011;73698;51.138;6.950;2024-03-02T03:17:38;1.70;;;1.05;;
83715;SDS011;73698;51.138;6.950;2024-03-02T03:20:03;0.65;;;0.60;;
83715;SDS011;73698;51.138;6.950;2024-03-02T03:22:30;2.58;;;0.77;;
83715;SDS011;73698;51.138;6.950;2024-03-02T03:24:57;1.65;;;1.08;;
83715;SDS011;73698;51.138;6.950;2024-03-02T03:27:22;2.90;;;1.10;;
83715;SDS011;73698;51.138;6.950;2024-03-02T03:29:48;1.63;;;0.90;;
83715;SDS011;73698;51.138;6.950;2024-03-02T03:32:13;1.20;;;1.10;;
83715;SDS011;73698;51.138;6.950;2024-03-02T03:34:39;1.30;;;1.08;;
83715;SDS011;73698;51.138;6.950;2024-03-02T03:37:04;1.45;;;0.90;;
83715;SDS011;73698;51.138;6.950;2024-03-02T03:39:29;0.95;;;0.95;;
83715;SDS011;73698;51.138;6.950;2024-03-02T03:41:55;2.08;;;0.90;;
83715;SDS011;73698;51.138;6.950;2024-03-02T03:44:20;1.52;;;1.15;;
83715;SDS011;73698;51.138;6.950;2024-03-02T03:46:45;1.83;;;1.00;;
83715;SDS011;73698;51.138;6.950;2024-03-02T03:49:11;2.05;;;0.90;;
83715;SDS011;73698;51.138;6.950;2024-03-02T03:51:36;1.27;;;0.90;;
83715;SDS011;73698;51.138;6.950;2024-03-02T03:54:02;2.47;;;1.17;;
83715;SDS011;73698;51.138;6.950;2024-03-02T03:56:27;2.25;;;0.80;;
83715;SDS011;73698;51.138;6.950;2024-03-02T03:58:52;0.73;;;0.70;;
83715;SDS011;73698;51.138;6.950;2024-03-02T04:01:18;3.75;;;0.90;;
83715;SDS011;73698;51.138;6.950;2024-03-02T04:03:44;2.60;;;1.00;;
83715;SDS011;73698;51.138;6.950;2024-03-02T04:06:10;1.42;;;1.20;;
83715;SDS011;73698;51.138;6.950;2024-03-02T04:08:35;1.02;;;0.80;;
83715;SDS011;73698;51.138;6.950;2024-03-02T04:11:00;4.85;;;1.30;;
83715;SDS011;73698;51.138;6.950;2024-03-02T04:13:27;1.45;;;0.93;;
83715;SDS011;73698;51.138;6.950;2024-03-02T04:15:53;1.92;;;1.02;;
83715;SDS011;73698;51.138;6.950;2024-03-02T04:18:18;1.17;;;0.73;;
83715;SDS011;73698;51.138;6.950;2024-03-02T04:20:44;2.20;;;0.95;;
83715;SDS011;73698;51.138;6.950;2024-03-02T04:23:09;1.60;;;0.73;;
83715;SDS011;73698;51.138;6.950;2024-03-02T04:25:35;0.77;;;0.70;;
83715;SDS011;73698;51.138;6.950;2024-03-02T04:28:01;1.27;;;1.10;;
83715;SDS011;73698;51.138;6.950;2024-03-02T04:30:26;2.70;;;1.20;;
83715;SDS011;73698;51.138;6.950;2024-03-02T04:32:52;1.77;;;1.00;;
83715;SDS011;73698;51.138;6.950;2024-03-02T04:35:17;1.38;;;1.10;;
83715;SDS011;73698;51.138;6.950;2024-03-02T04:37:42;2.33;;;1.08;;
83715;SDS011;73698;51.138;6.950;2024-03-02T04:40:08;1.23;;;0.95;;
83715;SDS011;73698;51.138;6.950;2024-03-02T04:42:34;3.58;;;1.23;;
83715;SDS011;73698;51.138;6.950;2024-03-02T04:45:00;1.30;;;0.85;;
83715;SDS011;73698;51.138;6.950;2024-03-02T04:47:26;2.47;;;1.00;;
83715;SDS011;73698;51.138;6.950;2024-03-02T04:49:51;3.70;;;0.80;;
83715;SDS011;73698;51.138;6.950;2024-03-02T04:52:16;1.20;;;0.80;;
83715;SDS011;73698;51.138;6.950;2024-03-02T04:54:42;2.53;;;0.98;;
83715;SDS011;73698;51.138;6.950;2024-03-02T04:57:26;3.13;;;1.13;;
83715;SDS011;73698;51.138;6.950;2024-03-02T04:59:52;0.85;;;0.80;;
83715;SDS011;73698;51.138;6.950;2024-03-02T05:02:17;1.73;;;1.10;;
83715;SDS011;73698;51.138;6.950;2024-03-02T05:04:42;2.22;;;0.93;;
83715;SDS011;73698;51.138;6.950;2024-03-02T05:07:08;2.45;;;1.02;;
83715;SDS011;73698;51.138;6.950;2024-03-02T05:09:33;2.58;;;1.80;;
83715;SDS011;73698;51.138;6.950;2024-03-02T05:11:58;0.80;;;0.77;;
83715;SDS011;73698;51.138;6.950;2024-03-02T05:17:25;2.10;;;1.02;;
83715;SDS011;73698;51.138;6.950;2024-03-02T05:19:51;3.05;;;0.80;;
83715;SDS011;73698;51.138;6.950;2024-03-02T05:22:16;2.45;;;1.20;;
83715;SDS011;73698;51.138;6.950;2024-03-02T05:24:41;2.58;;;1.35;;
83715;SDS011;73698;51.138;6.950;2024-03-02T05:27:07;2.63;;;1.08;;
83715;SDS011;73698;51.138;6.950;2024-03-02T05:29:32;1.40;;;1.17;;
83715;SDS011;73698;51.138;6.950;2024-03-02T05:31:58;1.85;;;0.90;;
83715;SDS011;73698;51.138;6.950;2024-03-02T05:34:23;1.92;;;1.33;;
83715;SDS011;73698;51.138;6.950;2024-03-02T05:36:48;2.38;;;1.13;;
83715;SDS011;73698;51.138;6.950;2024-03-02T05:39:14;2.47;;;1.15;;
83715;SDS011;73698;51.138;6.950;2024-03-02T05:41:39;1.30;;;1.10;;
83715;SDS011;73698;51.138;6.950;2024-03-02T05:44:04;4.50;;;1.65;;
83715;SDS011;73698;51.138;6.950;2024-03-02T05:46:30;2.72;;;1.30;;
83715;SDS011;73698;51.138;6.950;2024-03-02T05:48:55;1.52;;;1.38;;
83715;SDS011;73698;51.138;6.950;2024-03-02T05:51:21;3.42;;;1.30;;
83715;SDS011;73698;51.138;6.950;2024-03-02T05:53:46;3.40;;;1.33;;
83715;SDS011;73698;51.138;6.950;2024-03-02T05:56:11;1.27;;;1.02;;
83715;SDS011;73698;51.138;6.950;2024-03-02T05:58:37;1.42;;;1.30;;
83715;SDS011;73698;51.138;6.950;2024-03-02T06:01:03;1.90;;;1.20;;
83715;SDS011;73698;51.138;6.950;2024-03-02T06:03:29;2.03;;;1.35;;
83715;SDS011;73698;51.138;6.950;2024-03-02T06:05:55;1.83;;;1.20;;
83715;SDS011;73698;51.138;6.950;2024-03-02T06:08:20;1.98;;;1.63;;
83715;SDS011;73698;51.138;6.950;2024-03-02T06:10:46;2.53;;;1.33;;
83715;SDS011;73698;51.138;6.950;2024-03-02T06:13:11;3.95;;;1.80;;
83715;SDS011;73698;51.138;6.950;2024-03-02T06:15:36;1.95;;;1.60;;
83715;SDS011;73698;51.138;6.950;2024-03-02T06:18:02;2.17;;;1.52;;
83715;SDS011;73698;51.138;6.950;2024-03-02T06:20:28;3.17;;;1.90;;
83715;SDS011;73698;51.138;6.950;2024-03-02T06:22:55;3.83;;;1.60;;
83715;SDS011;73698;51.138;6.950;2024-03-02T06:25:21;2.58;;;2.10;;
83715;SDS011;73698;51.138;6.950;2024-03-02T06:27:46;2.63;;;1.77;;
83715;SDS011;73698;51.138;6.950;2024-03-02T06:30:12;2.85;;;1.88;;
83715;SDS011;73698;51.138;6.950;2024-03-02T06:32:37;6.47;;;2.03;;
83715;SDS011;73698;51.138;6.950;2024-03-02T06:35:03;5.95;;;2.10;;
83715;SDS011;73698;51.138;6.950;2024-03-02T06:37:29;2.42;;;1.83;;
83715;SDS011;73698;51.138;6.950;2024-03-02T06:39:55;2.33;;;1.50;;
83715;SDS011;73698;51.138;6.950;2024-03-02T06:42:20;3.70;;;1.77;;
83715;SDS011;73698;51.138;6.950;2024-03-02T06:44:46;2.53;;;1.75;;
83715;SDS011;73698;51.138;6.950;2024-03-02T06:47:11;5.75;;;1.63;;
83715;SDS011;73698;51.138;6.950;2024-03-02T06:49:37;2.15;;;1.50;;
83715;SDS011;73698;51.138;6.950;2024-03-02T06:52:02;1.88;;;1.40;;
83715;SDS011;73698;51.138;6.950;2024-03-02T06:54:28;3.05;;;1.73;;
83715;SDS011;73698;51.138;6.950;2024-03-02T06:56:53;2.70;;;1.85;;
83715;SDS011;73698;51.138;6.950;2024-03-02T06:59:18;5.28;;;1.65;;
83715;SDS011;73698;51.138;6.950;2024-03-02T07:01:44;2.75;;;1.55;;
83715;SDS011;73698;51.138;6.950;2024-03-02T07:04:09;2.65;;;1.48;;
83715;SDS011;73698;51.138;6.950;2024-03-02T07:06:34;4.05;;;1.67;;
83715;SDS011;73698;51.138;6.950;2024-03-02T07:09:00;1.95;;;1.63;;
83715;SDS011;73698;51.138;6.950;2024-03-02T07:11:25;4.03;;;1.38;;
83715;SDS011;73698;51.138;6.950;2024-03-02T07:13:50;3.17;;;1.67;;
83715;SDS011;73698;51.138;6.950;2024-03-02T07:16:16;2.90;;;1.73;;
83715;SDS011;73698;51.138;6.950;2024-03-02T07:18:55;2.95;;;1.67;;
83715;SDS011;73698;51.138;6.950;2024-03-02T07:21:21;2.55;;;1.65;;
83715;SDS011;73698;51.138;6.950;2024-03-02T07:23:47;1.80;;;1.35;;
83715;SDS011;73698;51.138;6.950;2024-03-02T07:26:13;2.95;;;1.40;;
83715;SDS011;73698;51.138;6.950;2024-03-02T07:28:40;2.38;;;1.63;;
83715;SDS011;73698;51.138;6.950;2024-03-02T07:31:06;2.45;;;1.73;;
83715;SDS011;73698;51.138;6.950;2024-03-02T07:33:32;1.83;;;1.40;;
83715;SDS011;73698;51.138;6.950;2024-03-02T07:35:58;3.35;;;1.73;;
83715;SDS011;73698;51.138;6.950;2024-03-02T07:38:24;2.78;;;1.75;;
83715;SDS011;73698;51.138;6.950;2024-03-02T07:40:50;4.30;;;2.40;;
83715;SDS011;73698;51.138;6.950;2024-03-02T07:43:16;2.80;;;1.63;;
83715;SDS011;73698;51.138;6.950;2024-03-02T07:45:42;3.45;;;1.90;;
83715;SDS011;73698;51.138;6.950;2024-03-02T07:48:08;3.03;;;1.70;;
83715;SDS011;73698;51.138;6.950;2024-03-02T07:50:33;2.95;;;1.80;;
83715;SDS011;73698;51.138;6.950;2024-03-02T07:53:00;2.67;;;1.50;;
83715;SDS011;73698;51.138;6.950;2024-03-02T07:55:26;2.67;;;1.92;;
83715;SDS011;73698;51.138;6.950;2024-03-02T07:57:51;2.33;;;1.70;;
83715;SDS011;73698;51.138;6.950;2024-03-02T08:00:17;2.67;;;1.75;;
83715;SDS011;73698;51.138;6.950;2024-03-02T08:02:42;3.08;;;1.63;;
83715;SDS011;73698;51.138;6.950;2024-03-02T08:05:08;1.77;;;1.50;;
83715;SDS011;73698;51.138;6.950;2024-03-02T08:07:34;2.42;;;1.45;;
83715;SDS011;73698;51.138;6.950;2024-03-02T08:09:59;6.20;;;1.63;;
83715;SDS011;73698;51.138;6.950;2024-03-02T08:12:25;2.25;;;1.63;;
83715;SDS011;73698;51.138;6.950;2024-03-02T08:14:50;2.60;;;1.65;;
83715;SDS011;73698;51.138;6.950;2024-03-02T08:17:16;3.08;;;1.85;;
83715;SDS011;73698;51.138;6.950;2024-03-02T08:19:41;1.45;;;1.23;;
83715;SDS011;73698;51.138;6.950;2024-03-02T08:22:07;4.10;;;1.40;;
83715;SDS011;73698;51.138;6.950;2024-03-02T08:24:33;2.33;;;1.52;;
83715;SDS011;73698;51.138;6.950;2024-03-02T08:26:59;4.10;;;2.00;;
83715;SDS011;73698;51.138;6.950;2024-03-02T08:29:25;2.60;;;1.73;;
83715;SDS011;73698;51.138;6.950;2024-03-02T08:31:50;3.65;;;1.77;;
83715;SDS011;73698;51.138;6.950;2024-03-02T08:34:16;4.22;;;2.55;;
83715;SDS011;73698;51.138;6.950;2024-03-02T08:36:41;3.83;;;1.80;;
83715;SDS011;73698;51.138;6.950;2024-03-02T08:39:07;3.33;;;1.88;;
83715;SDS011;73698;51.138;6.950;2024-03-02T08:41:40;2.45;;;1.48;;
83715;SDS011;73698;51.138;6.950;2024-03-02T08:44:12;3.22;;;1.63;;
83715;SDS011;73698;51.138;6.950;2024-03-02T08:46:38;1.98;;;1.42;;
83715;SDS011;73698;51.138;6.950;2024-03-02T08:49:05;5.00;;;1.63;;
83715;SDS011;73698;51.138;6.950;2024-03-02T08:51:31;2.83;;;1.50;;
83715;SDS011;73698;51.138;6.950;2024-03-02T08:53:56;3.15;;;1.95;;
83715;SDS011;73698;51.138;6.950;2024-03-02T08:56:23;1.98;;;1.40;;
83715;SDS011;73698;51.138;6.950;2024-03-02T08:58:49;1.67;;;1.35;;
83715;SDS011;73698;51.138;6.950;2024-03-02T09:01:15;2.63;;;1.65;;
83715;SDS011;73698;51.138;6.950;2024-03-02T09:03:42;3.88;;;1.30;;
83715;SDS011;73698;51.138;6.950;2024-03-02T09:06:09;2.22;;;1.60;;
83715;SDS011;73698;51.138;6.950;2024-03-02T09:08:35;1.73;;;1.50;;
83715;SDS011;73698;51.138;6.950;2024-03-02T09:11:02;2.40;;;1.50;;
83715;SDS011;73698;51.138;6.950;2024-03-02T09:13:28;1.95;;;1.38;;
83715;SDS011;73698;51.138;6.950;2024-03-02T09:15:54;2.05;;;1.40;;
83715;SDS011;73698;51.138;6.950;2024-03-02T09:18:19;1.60;;;1.35;;
83715;SDS011;73698;51.138;6.950;2024-03-02T09:20:45;3.92;;;1.30;;
83715;SDS011;73698;51.138;6.950;2024-03-02T09:23:11;4.32;;;1.30;;
83715;SDS011;73698;51.138;6.950;2024-03-02T09:25:36;3.20;;;1.17;;
83715;SDS011;73698;51.138;6.950;2024-03-02T09:28:02;2.05;;;1.40;;
83715;SDS011;73698;51.138;6.950;2024-03-02T09:30:28;1.98;;;1.52;;
83715;SDS011;73698;51.138;6.950;2024-03-02T09:32:53;1.35;;;1.25;;
83715;SDS011;73698;51.138;6.950;2024-03-02T09:35:19;4.43;;;1.40;;
83715;SDS011;73698;51.138;6.950;2024-03-02T09:37:44;2.97;;;1.33;;
83715;SDS011;73698;51.138;6.950;2024-03-02T09:40:10;3.10;;;1.40;;
83715;SDS011;73698;51.138;6.950;2024-03-02T09:42:37;2.10;;;1.20;;
83715;SDS011;73698;51.138;6.950;2024-03-02T09:45:02;2.92;;;1.05;;
83715;SDS011;73698;51.138;6.950;2024-03-02T09:47:28;2.38;;;1.00;;
83715;SDS011;73698;51.138;6.950;2024-03-02T09:49:54;2.33;;;1.02;;
83715;SDS011;73698;51.138;6.950;2024-03-02T09:52:21;3.08;;;1.00;;
83715;SDS011;73698;51.138;6.950;2024-03-02T09:54:47;1.00;;;0.80;;
83715;SDS011;73698;51.138;6.950;2024-03-02T09:57:14;1.50;;;0.90;;
83715;SDS011;73698;51.138;6.950;2024-03-02T09:59:39;1.02;;;0.90;;
83715;SDS011;73698;51.138;6.950;2024-03-02T10:02:05;3.70;;;1.00;;
83715;SDS011;73698;51.138;6.950;2024-03-02T10:04:32;2.42;;;1.00;;
83715;SDS011;73698;51.138;6.950;2024-03-02T10:07:17;1.40;;;1.30;;
83715;SDS011;73698;51.138;6.950;2024-03-02T10:09:44;1.63;;;0.93;;
83715;SDS011;73698;51.138;6.950;2024-03-02T10:12:11;2.55;;;1.15;;
83715;SDS011;73698;51.138;6.950;2024-03-02T10:14:37;2.97;;;1.05;;
83715;SDS011;73698;51.138;6.950;2024-03-02T10:17:04;1.08;;;0.98;;
83715;SDS011;73698;51.138;6.950;2024-03-02T10:19:31;4.97;;;1.00;;
83715;SDS011;73698;51.138;6.950;2024-03-02T10:21:58;2.67;;;0.93;;
83715;SDS011;73698;51.138;6.950;2024-03-02T10:24:24;2.13;;;1.08;;
83715;SDS011;73698;51.138;6.950;2024-03-02T10:26:50;2.40;;;1.30;;
83715;SDS011;73698;51.138;6.950;2024-03-02T10:29:17;3.83;;;1.10;;
83715;SDS011;73698;51.138;6.950;2024-03-02T10:31:43;4.30;;;0.95;;
83715;SDS011;73698;51.138;6.950;2024-03-02T10:34:11;1.05;;;0.88;;
83715;SDS011;73698;51.138;6.950;2024-03-02T10:36:37;1.90;;;0.90;;
83715;SDS011;73698;51.138;6.950;2024-03-02T10:39:06;2.45;;;1.00;;
83715;SDS011;73698;51.138;6.950;2024-03-02T10:41:33;1.73;;;1.20;;
83715;SDS011;73698;51.138;6.950;2024-03-02T10:43:59;2.30;;;1.30;;
83715;SDS011;73698;51.138;6.950;2024-03-02T10:46:28;1.90;;;0.90;;
83715;SDS011;73698;51.138;6.950;2024-03-02T10:48:55;2.35;;;1.17;;
83715;SDS011;73698;51.138;6.950;2024-03-02T10:51:23;1.45;;;1.10;;
83715;SDS011;73698;51.138;6.950;2024-03-02T10:53:49;2.40;;;1.10;;
83715;SDS011;73698;51.138;6.950;2024-03-02T10:56:16;1.42;;;0.80;;
83715;SDS011;73698;51.138;6.950;2024-03-02T10:58:51;3.42;;;0.85;;
83715;SDS011;73698;51.138;6.950;2024-03-02T11:01:26;2.28;;;1.05;;
83715;SDS011;73698;51.138;6.950;2024-03-02T11:03:53;1.85;;;0.90;;
83715;SDS011;73698;51.138;6.950;2024-03-02T11:06:19;2.67;;;1.00;;
83715;SDS011;73698;51.138;6.950;2024-03-02T11:08:47;2.35;;;1.27;;
83715;SDS011;73698;51.138;6.950;2024-03-02T11:11:18;1.88;;;1.08;;
83715;SDS011;73698;51.138;6.950;2024-03-02T11:13:52;1.98;;;0.85;;
83715;SDS011;73698;51.138;6.950;2024-03-02T11:16:27;2.50;;;1.23;;
83715;SDS011;73698;51.138;6.950;2024-03-02T11:19:11;2.67;;;1.20;;
83715;SDS011;73698;51.138;6.950;2024-03-02T11:21:38;1.70;;;0.95;;
83715;SDS011;73698;51.138;6.950;2024-03-02T11:26:49;1.15;;;1.08;;
83715;SDS011;73698;51.138;6.950;2024-03-02T11:32:00;2.95;;;1.10;;
83715;SDS011;73698;51.138;6.950;2024-03-02T11:34:30;6.78;;;1.38;;
83715;SDS011;73698;51.138;6.950;2024-03-02T11:36:56;1.05;;;0.93;;
83715;SDS011;73698;51.138;6.950;2024-03-02T11:39:22;1.63;;;0.80;;
83715;SDS011;73698;51.138;6.950;2024-03-02T11:41:48;1.60;;;0.90;;
83715;SDS011;73698;51.138;6.950;2024-03-02T11:44:14;6.72;;;1.30;;
83715;SDS011;73698;51.138;6.950;2024-03-02T11:46:40;1.77;;;0.70;;
83715;SDS011;73698;51.138;6.950;2024-03-02T11:49:05;1.65;;;0.98;;
83715;SDS011;73698;51.138;6.950;2024-03-02T11:51:32;1.95;;;1.05;;
83715;SDS011;73698;51.138;6.950;2024-03-02T11:53:59;1.08;;;0.73;;
83715;SDS011;73698;51.138;6.950;2024-03-02T11:56:27;1.50;;;0.80;;
83715;SDS011;73698;51.138;6.950;2024-03-02T11:58:55;2.35;;;0.70;;
83715;SDS011;73698;51.138;6.950;2024-03-02T12:01:22;1.70;;;1.08;;
83715;SDS011;73698;51.138;6.950;2024-03-02T12:03:48;2.05;;;0.90;;
83715;SDS011;73698;51.138;6.950;2024-03-02T12:06:14;5.70;;;0.85;;
83715;SDS011;73698;51.138;6.950;2024-03-02T12:08:40;1.10;;;1.00;;
83715;SDS011;73698;51.138;6.950;2024-03-02T12:11:05;1.00;;;0.90;;
83715;SDS011;73698;51.138;6.950;2024-03-02T12:13:31;1.05;;;0.70;;
83715;SDS011;73698;51.138;6.950;2024-03-02T12:15:58;1.23;;;0.80;;
83715;SDS011;73698;51.138;6.950;2024-03-02T12:18:24;2.20;;;0.90;;
83715;SDS011;73698;51.138;6.950;2024-03-02T12:20:50;1.92;;;1.13;;
83715;SDS011;73698;51.138;6.950;2024-03-02T12:23:23;3.05;;;1.08;;
83715;SDS011;73698;51.138;6.950;2024-03-02T12:25:49;2.25;;;1.33;;
83715;SDS011;73698;51.138;6.950;2024-03-02T12:28:15;2.17;;;0.82;;
83715;SDS011;73698;51.138;6.950;2024-03-02T12:30:40;1.10;;;1.00;;
83715;SDS011;73698;51.138;6.950;2024-03-02T12:33:06;1.83;;;1.50;;
83715;SDS011;73698;51.138;6.950;2024-03-02T12:35:31;2.75;;;0.85;;
83715;SDS011;73698;51.138;6.950;2024-03-02T12:37:57;0.90;;;0.70;;
83715;SDS011;73698;51.138;6.950;2024-03-02T12:40:23;1.30;;;0.70;;
83715;SDS011;73698;51.138;6.950;2024-03-02T12:42:49;2.17;;;1.08;;
83715;SDS011;73698;51.138;6.950;2024-03-02T12:45:15;2.80;;;1.00;;
83715;SDS011;73698;51.138;6.950;2024-03-02T12:47:41;2.88;;;0.90;;
83715;SDS011;73698;51.138;6.950;2024-03-02T12:50:07;0.77;;;0.77;;
83715;SDS011;73698;51.138;6.950;2024-03-02T12:52:35;1.88;;;0.77;;
83715;SDS011;73698;51.138;6.950;2024-03-02T12:55:01;1.17;;;0.80;;
83715;SDS011;73698;51.138;6.950;2024-03-02T12:57:29;1.30;;;0.57;;
83715;SDS011;73698;51.138;6.950;2024-03-02T13:00:03;1.02;;;0.80;;
83715;SDS011;73698;51.138;6.950;2024-03-02T13:02:39;2.83;;;1.10;;
83715;SDS011;73698;51.138;6.950;2024-03-02T13:05:06;1.42;;;0.80;;
83715;SDS011;73698;51.138;6.950;2024-03-02T13:07:36;0.82;;;0.80;;
83715;SDS011;73698;51.138;6.950;2024-03-02T13:10:02;1.70;;;1.10;;
83715;SDS011;73698;51.138;6.950;2024-03-02T13:12:28;2.40;;;0.93;;
83715;SDS011;73698;51.138;6.950;2024-03-02T13:14:57;1.60;;;0.95;;
83715;SDS011;73698;51.138;6.950;2024-03-02T13:17:23;1.35;;;0.80;;
83715;SDS011;73698;51.138;6.950;2024-03-02T13:22:17;1.35;;;0.68;;
83715;SDS011;73698;51.138;6.950;2024-03-02T13:24:43;1.38;;;0.80;;
83715;SDS011;73698;51.138;6.950;2024-03-02T13:27:08;2.00;;;0.80;;
83715;SDS011;73698;51.138;6.950;2024-03-02T13:29:33;1.40;;;0.90;;
83715;SDS011;73698;51.138;6.950;2024-03-02T13:31:59;1.25;;;0.70;;
83715;SDS011;73698;51.138;6.950;2024-03-02T13:34:24;1.92;;;0.80;;
83715;SDS011;73698;51.138;6.950;2024-03-02T13:36:50;0.98;;;0.80;;
83715;SDS011;73698;51.138;6.950;2024-03-02T13:39:15;2.53;;;0.80;;
83715;SDS011;73698;51.138;6.950;2024-03-02T13:41:41;1.52;;;1.20;;
83715;SDS011;73698;51.138;6.950;2024-03-02T13:44:06;3.17;;;0.60;;
83715;SDS011;73698;51.138;6.950;2024-03-02T13:46:32;0.63;;;0.60;;
83715;SDS011;73698;51.138;6.950;2024-03-02T13:48:57;0.70;;;0.70;;
83715;SDS011;73698;51.138;6.950;2024-03-02T13:51:23;2.80;;;0.60;;
83715;SDS011;73698;51.138;6.950;2024-03-02T13:53:50;0.73;;;0.60;;
83715;SDS011;73698;51.138;6.950;2024-03-02T13:56:15;1.45;;;1.00;;
83715;SDS011;73698;51.138;6.950;2024-03-02T13:58:42;2.20;;;0.90;;
83715;SDS011;73698;51.138;6.950;2024-03-02T14:01:08;0.98;;;0.60;;
83715;SDS011;73698;51.138;6.950;2024-03-02T14:03:34;2.40;;;0.90;;
83715;SDS011;73698;51.138;6.950;2024-03-02T14:05:59;2.78;;;0.77;;
83715;SDS011;73698;51.138;6.950;2024-03-02T14:08:25;4.78;;;0.80;;
83715;SDS011;73698;51.138;6.950;2024-03-02T14:10:50;1.30;;;0.80;;
83715;SDS011;73698;51.138;6.950;2024-03-02T14:13:16;0.75;;;0.70;;
83715;SDS011;73698;51.138;6.950;2024-03-02T14:15:41;0.85;;;0.70;;
83715;SDS011;73698;51.138;6.950;2024-03-02T14:18:07;1.08;;;0.90;;
83715;SDS011;73698;51.138;6.950;2024-03-02T14:20:35;1.48;;;0.98;;
83715;SDS011;73698;51.138;6.950;2024-03-02T14:23:00;1.85;;;0.80;;
83715;SDS011;73698;51.138;6.950;2024-03-02T14:25:27;1.15;;;0.90;;
83715;SDS011;73698;51.138;6.950;2024-03-02T14:27:56;1.55;;;0.70;;
83715;SDS011;73698;51.138;6.950;2024-03-02T14:30:22;0.80;;;0.80;;
83715;SDS011;73698;51.138;6.950;2024-03-02T14:32:48;0.70;;;0.70;;
83715;SDS011;73698;51.138;6.950;2024-03-02T14:35:13;0.82;;;0.70;;
83715;SDS011;73698;51.138;6.950;2024-03-02T14:37:40;1.70;;;0.80;;
83715;SDS011;73698;51.138;6.950;2024-03-02T14:40:05;0.70;;;0.70;;
83715;SDS011;73698;51.138;6.950;2024-03-02T14:42:33;2.75;;;0.80;;
83715;SDS011;73698;51.138;6.950;2024-03-02T14:44:59;1.25;;;0.80;;
83715;SDS011;73698;51.138;6.950;2024-03-02T14:47:24;1.13;;;1.02;;
83715;SDS011;73698;51.138;6.950;2024-03-02T14:49:50;0.93;;;0.70;;
83715;SDS011;73698;51.138;6.950;2024-03-02T14:52:15;1.33;;;0.70;;
83715;SDS011;73698;51.138;6.950;2024-03-02T14:54:43;2.50;;;0.77;;
83715;SDS011;73698;51.138;6.950;2024-03-02T14:57:09;0.80;;;0.68;;